Baltimore, Maryland
Traffic Map
Current Weather Conditions
Baltimore, Maryland
Scattered Clouds
Scattered Clouds
90°
Feels Like: 91°
Wind Chill: 90° Ceiling: Unl
Heat Index: 91° Visibility: 10mi
Dew Point: 64° Wind: 7mph
Humidity: 42% Direction: ° ()
Pressure: 30.14in Gusts: 0mph
Raw Report DataKBWI 271954Z VRB06KT 10SM FEW055 SCT250 32/18 A3014 RMK AO2 SLP206 T03220178
Traffic Incident Summary
Active as of:
Severity:
Category:
InformationThere was an issue retrieving the traffic information for this location. Please try a different location or try again shortly.
Advertisements
Track Severe Weather on mobile